Venray, Netherlands
Current Conditions -  °F | °C
As of 10:20 AM on Monday 24 Nov 2014 (Local Time) from EDLV Reporting Station
Clear Clear  
Wind Chill: 44°   Ceiling: Unl
Heat Index: 46°   Visibility: 6mi
Dew Point: 46°   Wind: 5mph
Humidity: 100%   Direction: 270°W
Pressure: 30.27"   Gusts: NA
Location:  51.53°N, 5.98°E
Report Text: EDLV 240920Z 27004KT CAVOK 08/08 Q1025
Loading
Personal Weather Stations






























Interactive Weather Map New forecast layout! Learn more

10-Day Weather Forecast

Advertisements
Track Severe Weather on mobile